Vancouver, WA

11:16 AM PDT del 01 Ottobre 2014 (GMT -0700)
Columbia Tech Center | Change Station
CLOSE
Current Station
Stazione meteo personale
Location: Vancouver, WA
Altitudine: 276 ft
Stazioni meteo nelle vicinanze
Avvisi attivi: Special Statement

Alt. 276 ft 45.62 °N, 122.48 °W | Updated 2 minutes ago

Molto nuvoloso
Molto nuvoloso
60.5 °F
Sembra 60.5 °F
N
3.0
Vento Variabile Vento da NE
Gusts 5.0 mph

Oggi
Massima -- | Minima -- °F
--% Possibilità di precip.
Ieri
Massima -- | Minima -- °F
Precip. -- in
7:08 AM 6:50 PM
Luna crescente, 49% visible
Pressione 30.16 in
Visibilità 10.0 miglia
Nuvole Alcuni 2500 ft
Nubi sparse 5500 ft
Molto nuvoloso 7000 ft
Punto di rugiada 50 °F
Umidità 67%
Piovosità 0.00 in
Spessore del manto nevoso 1 in , 1 in , 0 in
Raggi UV 2 fuori da 12
Polline .90 fuori da 12
Qualità dell'aria Non disponibile.
Flu Activity Non disponibile.
METAR KPDX 301753Z 29005KT 10SM FEW025 SCT055 BKN070 16/12 A3016 RMK AO2 SLP211 60005 T01610117 10161 20117 53013

More Conditions Fewer Conditions

Pressione 30.16 in
Visibilità 10.0 miglia
Nuvole Alcuni 2500 ft
Nubi sparse 5500 ft
Molto nuvoloso 7000 ft
Punto di rugiada 50 °F
Umidità 67%
Piovosità 0.00 in
Spessore del manto nevoso 1 in , 1 in , 0 in
Raggi UV 2 fuori da 12
Polline .90 fuori da 12
Qualità dell'aria Non disponibile.
Flu Activity Non disponibile.
METAR KPDX 301753Z 29005KT 10SM FEW025 SCT055 BKN070 16/12 A3016 RMK AO2 SLP211 60005 T01610117 10161 20117 53013

More Conditions Fewer Conditions

10-Day Weather Forecast

Almanac

Astronomia

Oct. 01, 2014 Alba Tramonto
Ora attuale 07:08 PDT 18:50 PDT
Crepuscolo civile 06:38 PDT 19:19 PDT
Crepuscolo nautico 06:04 PDT 19:53 PDT
Crepuscolo astronomico 05:29 PDT 20:28 PDT
Luna 14:26 PDT Nessun tramonto lunare
Estensione della luce visibile 12h 40m
Lunghezza del giorno
11h 41m
Tomorrow will be 3m 10s shorter.
Luna crescente, 49% of the Moon is Illuminated
Oggi
Luna crescente
Ott 1
Primo quarto
Ott 8
Luna piena
Ott 15
Ultimo quarto
Ott 23
Nuovo

Gli estremi di oggi

State Highs State Lows

Community

WunderPhotos

Upload Photos

1,758,008 foto caricate!

WunderBlogs® & News

By Dr. Jeff Masters
Director of Meteorology, Weather Underground
By Kari Strenfel
Meteorologist, Weather Underground
By Christopher C. Burt
Weather Historian, Weather Underground
October 1, 2014
October 1, 2014
October 1, 2014

Nearby

Profondità neve

Stazione Profondità Altitudine
Sourdough Gulch 1 in 4000 ft
Moses Mountain 1 in 5300 ft
Sentinel Butte 0 in 4920 ft
Elbow Lake 0 in 3200 ft
Spirit Lake 0 in 3120 ft

Attività sismica

Città  Distanza Mag. Data & Ora
Non sono state riportate attività sismiche nelle vicinanze.
Minimo Magnitudo Mostrato è 2.5.

Temperature delle acque costiere

Località Temperatura
Nessun dato dalle stazioni

Stazioni meteo nelle vicinanze